Marion, MA (02738)

8:09 AM EDT on August 30, 2015 (GMT -0400)
Marion Inner Harbor | | Change Station
CLOSE
Current Station
Personal Weather Station
Location: Marion, MA
Elevation: 18 ft
Nearby Weather Stations

Elev 18 ft 41.70 °N, 70.76 °W | Updated 38 seconds ago

Partly Cloudy
Partly Cloudy
71.2 °F
Feels Like 71.2 °F
N
2.0
Wind Variable Wind from WSW
Gusts 7.0 mph

Today
High -- | Low -- °F
--% Chance of Precip.
Yesterday
High -- | Low -- °F
Precip. -- in
6:06 AM 7:20 PM
Full, 99% visible
Pressure 30.08 in
Visibility 10.0 miles
Clouds Clear
Dew Point 68 °F
Humidity 90%
Rainfall 0.00 in
Snow Depth Not available.
UV 1 out of 12
Pollen 9.90 out of 12
Air Quality Not available.
Flu Activity Not available.
METAR KEWB 301153Z 21003KT 10SM CLR 21/19 A3008 RMK AO2 SLP185 T02110194 10211 20161 51003
Pressure 30.08 in
Visibility 10.0 miles
Clouds Clear
Dew Point 68 °F
Humidity 90%
Rainfall 0.00 in
Snow Depth Not available.
UV 1 out of 12
Pollen 9.90 out of 12
Air Quality Not available.
Flu Activity Not available.
METAR KEWB 301153Z 21003KT 10SM CLR 21/19 A3008 RMK AO2 SLP185 T02110194 10211 20161 51003

10-Day Weather Forecast

×

Almanac

Astronomy

Aug. 30, 2015 Rise Set
Actual Time
Civil Twilight
Nautical Twilight
Astronomical Twilight
Moon
Length of Visible Light
Length of Day
Tomorrow will be .
, % of the Moon is Illuminated

Today's Extremes

State Highs State Lows

Community

WunderPhotos

Upload Photos

1,850,934 photos uploaded!

WunderBlogs® & News

Nearby

Air Quality

  Air Quality AQ Index Pollutant
Not available.

Snow Depth

Station Depth Elevation

Earthquake Activity

City Distance Mag. Time & Date
Minimum magnitude displayed is 2.5.

Coastal Water Temperatures

Place Temperature

Stations

Nearby Weather Stations

Station Location Temp. Windchill Dew Point Humidity Wind Precip. Elev Updated Type